Terminal Aerodrome Forecast
Issued by NWS

Home | Current Version | Previous Version | Graphics & Text | Print | Product List | Glossary On
Versions: 1 2 3 4 5 6 7 8 9 10 11 12 13 14
167
FTUS41 KCLE 300216 AAA
TAFFDY
TAF AMD
KFDY 300216Z 3002/3024 07006KT P6SM -SHRA SCT045 OVC080
      TEMPO 3002/3005 5SM SHRA OVC045
     FM300800 04003KT 5SM BR SCT120 BKN200
      TEMPO 3009/3013 3SM BR
     FM301400 06005KT P6SM SCT035 BKN120
     FM301600 10005KT P6SM VCTS BKN045CB=

USA.gov is the U.S. government's official web portal to all federal, state and local government web resources and services.